Time;durP1;ratioP1;P1;durP2;ratioP2;P2;SDS_P1;SDS_P2;PMS_P1;PMS_P2;Temp;Humidity;BMP_temperature;BMP_pressure;BME280_temperature;BME280_humidity;BME280_pressure;Samples;Min_cycle;Max_cycle;Signal;HPM_P1;HPM_P2
2023/12/20 00:00:20;;;;;;;6.97;6.47;;;;;;;8.02;100.00;99783.47;5050190;28;20630;-78
2023/12/20 00:02:47;;;;;;;7.47;6.97;;;;;;;8.33;100.00;99768.97;5050987;28;20334;-78
2023/12/20 00:05:14;;;;;;;6.53;6.10;;;;;;;8.33;100.00;99779.34;5051126;28;20216;-78
2023/12/20 00:07:40;;;;;;;6.63;6.13;;;;;;;8.16;100.00;99771.88;5051680;28;20206;-78
2023/12/20 00:10:08;;;;;;;7.43;6.93;;;;;;;8.25;100.00;99751.81;5051452;28;20204;-78
2023/12/20 00:12:34;;;;;;;6.37;5.93;;;;;;;7.89;100.00;99754.25;5056277;28;20206;-78
2023/12/20 00:15:02;;;;;;;6.57;6.07;;;;;;;7.87;100.00;99724.81;5064140;28;20230;-77
2023/12/20 00:17:28;;;;;;;6.77;6.27;;;;;;;8.10;100.00;99717.41;5065137;28;20206;-78
2023/12/20 00:19:54;;;;;;;7.20;6.60;;;;;;;8.08;100.00;99727.00;5065060;28;20232;-78
2023/12/20 00:22:21;;;;;;;7.17;6.57;;;;;;;8.14;100.00;99724.28;5070968;28;20214;-78
2023/12/20 00:24:47;;;;;;;7.77;7.07;;;;;;;7.82;100.00;99721.47;5063099;28;20235;-78
2023/12/20 00:27:14;;;;;;;8.20;7.50;;;;;;;7.81;100.00;99709.34;5062404;28;20227;-76
2023/12/20 00:29:42;;;;;;;6.77;6.27;;;;;;;7.52;100.00;99701.22;5050609;28;20204;-78
2023/12/20 00:32:10;;;;;;;7.27;6.67;;;;;;;7.58;100.00;99699.41;5052658;28;20241;-77
2023/12/20 00:34:36;;;;;;;7.00;6.47;;;;;;;7.56;100.00;99704.63;5053981;28;20221;-77
2023/12/20 00:37:03;;;;;;;7.20;6.60;;;;;;;7.53;100.00;99710.75;4703951;28;9999628;-77
2023/12/20 00:39:29;;;;;;;6.53;6.03;;;;;;;7.65;100.00;99733.06;5054463;28;20260;-78
2023/12/20 00:41:55;;;;;;;6.23;5.23;;;;;;;7.66;100.00;99771.09;5054149;28;20201;-77
2023/12/20 00:44:22;;;;;;;6.37;5.77;;;;;;;7.43;100.00;99783.63;5054167;28;20256;-77
2023/12/20 00:46:48;;;;;;;6.97;5.93;;;;;;;7.59;100.00;99815.41;5055849;28;20254;-77
2023/12/20 00:49:16;;;;;;;5.73;5.10;;;;;;;7.75;100.00;99841.09;5054972;28;20197;-77
2023/12/20 00:51:42;;;;;;;8.80;5.20;;;;;;;7.39;100.00;99865.91;5056569;28;20677;-77
2023/12/20 00:54:09;;;;;;;6.13;5.53;;;;;;;7.47;100.00;99870.97;5055679;28;20642;-77
2023/12/20 00:56:35;;;;;;;5.37;4.87;;;;;;;7.46;100.00;99885.72;5056491;28;20208;-77
2023/12/20 00:59:01;;;;;;;6.90;5.90;;;;;;;7.40;100.00;99900.53;5056335;28;20208;-77
2023/12/20 01:01:28;;;;;;;5.67;5.07;;;;;;;7.32;100.00;99903.25;5056165;28;20298;-77
2023/12/20 01:03:55;;;;;;;6.77;5.20;;;;;;;7.07;100.00;99893.19;5055421;28;20263;-77
2023/12/20 01:06:23;;;;;;;12.87;5.33;;;;;;;7.23;100.00;99874.81;5056284;28;20217;-76
2023/12/20 01:08:50;;;;;;;8.83;5.23;;;;;;;7.14;100.00;99883.59;5055075;28;20204;-77
2023/12/20 01:11:16;;;;;;;6.20;4.87;;;;;;;7.20;100.00;99872.28;5055822;28;20200;-77
2023/12/20 01:13:42;;;;;;;6.63;6.00;;;;;;;7.10;100.00;99876.72;5055929;28;20273;-77
2023/12/20 01:16:11;;;;;;;7.80;4.43;;;;;;;7.12;100.00;99899.19;5055713;28;20202;-77
2023/12/20 01:18:38;;;;;;;4.73;3.30;;;;;;;6.83;100.00;99919.44;5055827;28;20285;-76
2023/12/20 01:21:08;;;;;;;7.10;3.20;;;;;;;6.86;100.00;99935.00;5056296;28;20273;-77
2023/12/20 01:23:36;;;;;;;6.97;2.80;;;;;;;6.64;100.00;99937.81;5055216;28;20295;-76
2023/12/20 01:26:04;;;;;;;8.07;3.27;;;;;;;6.84;100.00;99935.00;5055509;28;20264;-77
2023/12/20 01:28:30;;;;;;;3.27;1.90;;;;;;;6.78;100.00;99957.53;5055244;28;20199;-78
2023/12/20 01:30:56;;;;;;;4.77;2.17;;;;;;;6.78;100.00;99965.31;5054311;28;20198;-77
2023/12/20 01:33:23;;;;;;;10.83;2.57;;;;;;;6.75;100.00;99981.78;5054975;28;20232;-77
2023/12/20 01:35:49;;;;;;;3.00;1.57;;;;;;;6.56;100.00;99992.38;5055604;28;20212;-77
2023/12/20 01:38:18;;;;;;;6.27;1.50;;;;;;;6.64;100.00;99986.22;5055104;28;20213;-77
2023/12/20 01:40:46;;;;;;;3.77;1.57;;;;;;;6.80;99.35;99998.19;5055036;28;20233;-78
2023/12/20 01:43:12;;;;;;;4.20;1.33;;;;;;;6.62;99.08;100019.97;5054479;28;20284;-77
2023/12/20 01:45:39;;;;;;;4.77;1.50;;;;;;;6.58;98.93;100031.25;5054619;28;20232;-77
2023/12/20 01:48:06;;;;;;;5.50;1.20;;;;;;;6.53;99.20;100022.63;5054900;28;20272;-77
2023/12/20 01:50:35;;;;;;;3.73;1.37;;;;;;;6.48;99.59;100040.84;5055136;28;20252;-77
2023/12/20 01:53:03;;;;;;;4.63;1.10;;;;;;;6.59;99.69;100024.31;5054190;28;20253;-77
2023/12/20 01:55:33;;;;;;;4.77;2.10;;;;;;;6.78;99.54;100022.38;5053976;28;20205;-77
2023/12/20 01:58:02;;;;;;;6.63;1.87;;;;;;;6.77;98.73;100052.66;5055992;28;20207;-77
2023/12/20 02:00:29;;;;;;;3.43;1.37;;;;;;;6.60;99.07;100055.44;5055492;28;20707;-77
2023/12/20 02:02:56;;;;;;;7.07;1.50;;;;;;;6.74;99.73;100030.22;5054075;28;20219;-77
2023/12/20 02:05:23;;;;;;;3.70;1.43;;;;;;;6.76;100.00;100030.22;5055175;28;20289;-77
2023/12/20 02:07:49;;;;;;;4.97;1.30;;;;;;;6.51;100.00;100033.03;5055116;28;20199;-77
2023/12/20 02:10:16;;;;;;;8.83;1.80;;;;;;;6.70;100.00;100019.88;5055293;28;20199;-77
2023/12/20 02:12:43;;;;;;;4.53;1.30;;;;;;;6.49;100.00;100026.13;5046318;28;20730;-77
2023/12/20 02:15:11;;;;;;;4.63;1.47;;;;;;;6.49;100.00;100014.03;5054605;28;20197;-77
2023/12/20 02:17:39;;;;;;;5.20;1.40;;;;;;;6.59;100.00;100011.34;5054296;28;20666;-77
2023/12/20 02:20:07;;;;;;;4.87;1.57;;;;;;;6.58;100.00;100013.09;5054492;28;20199;-78
2023/12/20 02:22:34;;;;;;;5.30;1.13;;;;;;;6.68;99.93;100017.31;5054999;28;20252;-77
2023/12/20 02:25:01;;;;;;;4.00;1.40;;;;;;;6.62;100.00;100008.72;5054438;28;20225;-77
2023/12/20 02:27:28;;;;;;;6.13;1.93;;;;;;;6.78;100.00;100015.50;5054782;28;20203;-77
2023/12/20 02:29:55;;;;;;;7.13;2.27;;;;;;;6.63;100.00;100024.28;5054528;28;20220;-78
2023/12/20 02:32:22;;;;;;;5.30;1.40;;;;;;;6.92;99.27;100020.53;5055556;28;20256;-78
2023/12/20 02:34:49;;;;;;;3.63;1.80;;;;;;;6.83;99.13;100020.63;5055099;28;20217;-78
2023/12/20 02:37:16;;;;;;;4.70;1.60;;;;;;;6.87;98.38;100023.16;5055267;28;20293;-77
2023/12/20 02:39:43;;;;;;;5.07;1.93;;;;;;;6.76;98.45;100019.84;5054173;28;20270;-78
2023/12/20 02:42:10;;;;;;;3.40;1.80;;;;;;;6.73;96.36;100033.69;5055277;28;20208;-78
2023/12/20 02:44:36;;;;;;;5.63;1.90;;;;;;;6.73;96.43;100043.19;5054531;28;20697;-78
2023/12/20 02:47:03;;;;;;;4.53;1.70;;;;;;;6.69;94.81;100076.06;5055175;28;20213;-77
2023/12/20 02:49:29;;;;;;;6.67;2.13;;;;;;;6.70;95.41;100103.75;5054501;28;20313;-78
2023/12/20 02:51:55;;;;;;;8.13;1.70;;;;;;;6.54;94.71;100108.22;5054434;28;20208;-77
2023/12/20 02:54:22;;;;;;;2.67;1.40;;;;;;;6.31;94.12;100113.53;5051339;28;20243;-77
2023/12/20 02:56:49;;;;;;;2.43;1.60;;;;;;;6.20;94.67;100117.06;5054494;28;20213;-77
2023/12/20 02:59:16;;;;;;;5.50;1.80;;;;;;;6.04;95.28;100101.63;5054237;28;20684;-77
2023/12/20 03:01:43;;;;;;;7.27;1.63;;;;;;;6.18;96.31;100078.22;5053106;28;20262;-77
2023/12/20 03:04:10;;;;;;;4.67;1.53;;;;;;;6.09;95.32;100088.66;5052630;28;20586;-77
2023/12/20 03:06:36;;;;;;;4.70;1.93;;;;;;;6.20;93.67;100104.13;5053377;28;20706;-77
2023/12/20 03:09:02;;;;;;;5.43;1.43;;;;;;;6.23;94.17;100112.75;5052793;28;20736;-77
2023/12/20 03:11:29;;;;;;;3.53;1.53;;;;;;;6.16;93.47;100129.19;5054639;28;20216;-78
2023/12/20 03:13:57;;;;;;;5.40;1.23;;;;;;;6.07;92.48;100129.25;5053948;28;20608;-78
2023/12/20 03:16:24;;;;;;;4.37;1.10;;;;;;;6.20;91.57;100137.81;5053104;28;20248;-78
2023/12/20 03:18:50;;;;;;;3.33;1.33;;;;;;;6.08;90.95;100168.09;5058994;28;20197;-78
2023/12/20 03:21:17;;;;;;;4.77;0.87;;;;;;;6.29;90.88;100168.88;5054137;28;20208;-77
2023/12/20 03:23:44;;;;;;;3.27;1.00;;;;;;;6.27;90.80;100176.66;5053516;28;20230;-77
2023/12/20 03:26:10;;;;;;;3.93;1.30;;;;;;;6.22;90.43;100188.75;5053405;28;20738;-78
2023/12/20 03:28:37;;;;;;;3.30;1.40;;;;;;;6.24;91.83;100183.56;5054203;28;20256;-77
2023/12/20 03:31:05;;;;;;;3.70;1.27;;;;;;;6.22;92.58;100162.84;5053290;28;20228;-77
2023/12/20 03:33:31;;;;;;;7.33;1.40;;;;;;;6.14;93.50;100142.19;5052896;28;20237;-78
2023/12/20 03:35:57;;;;;;;3.40;1.67;;;;;;;6.20;91.74;100140.41;5053593;28;20194;-78
2023/12/20 03:38:24;;;;;;;2.33;1.20;;;;;;;6.24;91.99;100131.72;5053382;28;20225;-78
2023/12/20 03:40:50;;;;;;;3.60;1.40;;;;;;;6.19;92.46;100113.63;5045299;28;20200;-78
2023/12/20 03:43:17;;;;;;;2.67;1.53;;;;;;;6.18;92.61;100111.91;5054416;28;20228;-78
2023/12/20 03:45:44;;;;;;;3.90;1.63;;;;;;;6.29;91.34;100122.22;5053606;28;20227;-78
2023/12/20 03:48:11;;;;;;;5.00;1.20;;;;;;;6.52;91.57;100128.09;5054925;28;20250;-78
2023/12/20 03:50:38;;;;;;;6.17;2.37;;;;;;;6.36;91.41;100139.44;5054281;28;20211;-78
2023/12/20 03:53:04;;;;;;;3.50;1.70;;;;;;;6.24;92.83;100134.31;5054643;28;20779;-78
2023/12/20 03:55:31;;;;;;;6.33;1.90;;;;;;;6.43;93.09;100120.38;5053696;28;20209;-77
2023/12/20 03:57:57;;;;;;;4.20;1.53;;;;;;;6.57;92.95;100108.16;5054539;28;20201;-77
2023/12/20 04:00:23;;;;;;;4.67;1.60;;;;;;;6.42;92.24;100104.81;5054487;28;20238;-78
2023/12/20 04:02:50;;;;;;;7.77;1.83;;;;;;;6.44;92.83;100100.50;5053185;28;20199;-77
2023/12/20 04:05:17;;;;;;;6.53;1.60;;;;;;;6.43;92.86;100107.41;5054660;28;20248;-78
2023/12/20 04:07:44;;;;;;;3.70;2.07;;;;;;;6.26;92.79;100112.69;5058724;28;20210;-78
2023/12/20 04:10:10;;;;;;;4.77;1.70;;;;;;;6.23;93.27;100101.53;5057660;28;20292;-78
2023/12/20 04:12:37;;;;;;;4.43;1.60;;;;;;;6.48;93.44;100082.31;5057535;28;20209;-78
2023/12/20 04:15:08;;;;;;;5.57;2.43;;;;;;;6.50;92.79;100088.34;5058074;28;20617;-78
2023/12/20 04:17:35;;;;;;;4.83;2.00;;;;;;;6.60;91.31;100098.63;5056670;28;20214;-78
2023/12/20 04:20:01;;;;;;;7.57;2.10;;;;;;;6.47;91.89;100100.47;5058429;28;20202;-78
2023/12/20 04:22:29;;;;;;;5.30;2.20;;;;;;;6.44;91.27;100121.22;5058051;28;20303;-77
2023/12/20 04:24:55;;;;;;;7.37;2.10;;;;;;;6.59;90.93;100128.91;5057569;28;20305;-78
2023/12/20 04:27:22;;;;;;;3.10;1.50;;;;;;;6.78;90.08;100131.34;5058943;28;20267;-78
2023/12/20 04:29:48;;;;;;;3.73;1.57;;;;;;;6.66;89.77;100156.53;5058141;28;20255;-78
2023/12/20 04:32:14;;;;;;;4.90;1.40;;;;;;;6.83;89.15;100153.78;5058302;28;20211;-78
2023/12/20 04:34:41;;;;;;;3.33;1.33;;;;;;;6.88;89.34;100161.53;5058096;28;20225;-78
2023/12/20 04:37:07;;;;;;;7.73;1.80;;;;;;;6.73;89.44;100178.94;5056543;28;20207;-77
2023/12/20 04:39:35;;;;;;;5.50;2.20;;;;;;;6.60;89.76;100182.50;5056779;28;20209;-77
2023/12/20 04:42:02;;;;;;;5.43;1.50;;;;;;;6.74;90.33;100159.06;5057347;28;20255;-77
2023/12/20 04:44:28;;;;;;;6.70;2.07;;;;;;;6.65;90.34;100156.53;5056160;28;20712;-78
2023/12/20 04:46:56;;;;;;;6.40;2.67;;;;;;;6.61;91.16;100142.72;5049316;28;20663;-78
2023/12/20 04:49:22;;;;;;;6.53;2.83;;;;;;;6.88;89.92;100133.00;5058246;28;20199;-78
2023/12/20 04:51:49;;;;;;;6.60;2.87;;;;;;;6.65;90.62;100140.97;5057907;28;20208;-77
2023/12/20 04:54:15;;;;;;;8.50;2.50;;;;;;;6.62;90.28;100141.88;5056820;28;20218;-78
2023/12/20 04:56:43;;;;;;;5.47;3.20;;;;;;;6.80;90.83;100121.81;5057800;28;20214;-78
2023/12/20 04:59:09;;;;;;;4.27;2.10;;;;;;;6.81;89.69;100133.91;5056079;28;20653;-77
2023/12/20 05:01:36;;;;;;;7.80;2.77;;;;;;;6.88;89.68;100140.78;5057180;28;20270;-78
2023/12/20 05:04:02;;;;;;;8.43;3.20;;;;;;;6.84;90.37;100134.75;5056844;28;20390;-78
2023/12/20 05:06:28;;;;;;;5.90;2.80;;;;;;;6.62;91.37;100128.00;5057538;28;20639;-77
2023/12/20 05:08:55;;;;;;;6.67;3.10;;;;;;;6.64;90.96;100121.06;5056697;28;20664;-78
2023/12/20 05:11:21;;;;;;;9.70;3.60;;;;;;;6.65;91.50;100112.44;5057126;28;20629;-78
2023/12/20 05:13:49;;;;;;;5.77;2.90;;;;;;;6.63;91.13;100107.25;5056450;28;20649;-77
2023/12/20 05:16:17;;;;;;;5.70;3.23;;;;;;;6.57;91.20;100121.13;5057370;28;20207;-77
2023/12/20 05:18:44;;;;;;;6.33;3.07;;;;;;;6.61;91.50;100114.19;5056053;28;20207;-78
2023/12/20 05:21:10;;;;;;;5.23;2.97;;;;;;;6.62;91.29;100095.19;5057737;28;20211;-78
2023/12/20 05:23:36;;;;;;;7.13;2.70;;;;;;;6.70;90.88;100093.38;5056739;28;20224;-78
2023/12/20 05:26:03;;;;;;;11.40;3.67;;;;;;;7.09;89.96;100104.22;5057534;28;20766;-78
2023/12/20 05:28:29;;;;;;;6.43;3.10;;;;;;;7.04;88.68;100141.50;5057527;28;20212;-78
2023/12/20 05:30:57;;;;;;;10.47;2.90;;;;;;;6.98;88.92;100142.44;5056198;28;20203;-78
2023/12/20 05:33:24;;;;;;;8.43;2.83;;;;;;;6.87;88.75;100152.03;5056594;28;20237;-78
2023/12/20 05:35:51;;;;;;;7.03;3.33;;;;;;;6.81;88.99;100159.88;5057275;28;20299;-78
2023/12/20 05:38:17;;;;;;;8.40;3.43;;;;;;;6.68;90.38;100133.16;5056815;28;20210;-78
2023/12/20 05:40:44;;;;;;;8.00;2.83;;;;;;;6.69;91.28;100116.72;5057203;28;20266;-78
2023/12/20 05:43:10;;;;;;;7.00;3.37;;;;;;;6.70;90.89;100121.03;5057208;28;20568;-78
2023/12/20 05:45:36;;;;;;;11.37;3.50;;;;;;;6.78;90.52;100105.41;5056489;28;20233;-78
2023/12/20 05:48:05;;;;;;;9.10;3.33;;;;;;;6.89;90.14;100108.75;5057498;28;20268;-77
2023/12/20 05:50:31;;;;;;;7.13;3.00;;;;;;;6.61;90.46;100123.72;5056730;28;20244;-78
2023/12/20 05:52:57;;;;;;;10.87;3.80;;;;;;;6.88;90.99;100099.28;5056851;28;20275;-78
2023/12/20 05:55:24;;;;;;;7.77;3.27;;;;;;;6.88;91.48;100087.16;5055071;28;20646;-78
2023/12/20 05:57:50;;;;;;;6.03;3.47;;;;;;;6.78;91.78;100082.06;5055924;28;20219;-78
2023/12/20 06:00:18;;;;;;;11.73;3.63;;;;;;;6.81;93.44;100053.50;5055013;28;20230;-78
2023/12/20 06:02:44;;;;;;;9.93;3.90;;;;;;;6.70;93.76;100036.31;5055049;28;20268;-78
2023/12/20 06:05:12;;;;;;;7.60;3.20;;;;;;;6.55;93.78;100028.66;5054844;28;20227;-78
2023/12/20 06:07:38;;;;;;;7.53;3.03;;;;;;;6.51;94.62;100008.84;5054370;28;20236;-78
2023/12/20 06:10:06;;;;;;;7.63;2.90;;;;;;;6.60;95.46;100000.09;5053918;28;20605;-78
2023/12/20 06:12:33;;;;;;;10.80;2.93;;;;;;;6.67;95.40;100001.75;5055147;28;20289;-77
2023/12/20 06:14:59;;;;;;;5.63;2.77;;;;;;;6.69;95.19;100000.00;5054869;28;20252;-78
2023/12/20 06:17:26;;;;;;;4.40;3.30;;;;;;;6.46;96.30;99979.47;5055202;28;20203;-77
2023/12/20 06:19:52;;;;;;;10.83;3.20;;;;;;;6.35;96.10;99977.00;5054222;28;20206;-77
2023/12/20 06:22:20;;;;;;;13.23;3.83;;;;;;;6.41;96.19;99974.34;5054409;28;20238;-77
2023/12/20 06:24:46;;;;;;;8.17;3.17;;;;;;;6.60;95.12;99985.41;5055754;28;20699;-78
2023/12/20 06:27:12;;;;;;;7.60;3.33;;;;;;;6.63;94.03;99995.75;5055369;28;20619;-78
2023/12/20 06:29:40;;;;;;;9.87;3.40;;;;;;;6.62;93.56;100008.72;5054114;28;20289;-77
2023/12/20 06:32:07;;;;;;;9.07;3.07;;;;;;;6.71;92.30;100019.00;5053669;28;20245;-77
2023/12/20 06:34:33;;;;;;;6.03;3.03;;;;;;;6.67;92.19;100022.50;5053939;28;20669;-77
2023/12/20 06:36:59;;;;;;;5.97;3.27;;;;;;;6.75;93.23;100018.97;5054372;28;20668;-77
2023/12/20 06:39:27;;;;;;;10.13;3.30;;;;;;;6.68;93.29;100014.72;5053493;28;20738;-78
2023/12/20 06:41:54;;;;;;;10.93;3.47;;;;;;;6.51;95.36;99993.28;5053897;28;20203;-78
2023/12/20 06:44:20;;;;;;;12.93;4.90;;;;;;;6.53;95.35;99994.13;5054046;28;20291;-77
2023/12/20 06:46:47;;;;;;;6.20;2.93;;;;;;;6.29;96.31;99964.97;5054772;28;20230;-77
2023/12/20 06:49:13;;;;;;;8.63;3.57;;;;;;;6.47;96.45;99952.69;5054043;28;20208;-78
2023/12/20 06:51:40;;;;;;;9.60;3.47;;;;;;;6.35;97.81;99949.34;5054476;28;20560;-77
2023/12/20 06:54:06;;;;;;;8.83;3.70;;;;;;;6.41;98.15;99919.91;5053145;28;20283;-78
2023/12/20 06:56:34;;;;;;;10.43;3.43;;;;;;;6.25;97.80;99924.38;5054467;28;20225;-77
2023/12/20 06:59:01;;;;;;;10.27;3.70;;;;;;;6.44;96.83;99924.19;5053810;28;20233;-77
2023/12/20 07:01:27;;;;;;;10.20;3.87;;;;;;;6.45;96.36;99936.31;5054394;28;20591;-78
2023/12/20 07:03:53;;;;;;;9.90;3.77;;;;;;;6.47;97.43;99922.44;5053734;28;20227;-77
2023/12/20 07:06:20;;;;;;;8.47;3.50;;;;;;;6.32;98.20;99915.69;5054083;28;20280;-78
2023/12/20 07:08:46;;;;;;;10.07;3.80;;;;;;;6.31;98.72;99900.16;5053269;28;20202;-77
2023/12/20 07:11:13;;;;;;;12.53;3.23;;;;;;;6.23;97.56;99889.84;5054048;28;20197;-77
2023/12/20 07:13:40;;;;;;;6.80;2.77;;;;;;;6.31;96.45;99901.00;5053421;28;20221;-77
2023/12/20 07:16:07;;;;;;;8.10;2.90;;;;;;;6.32;96.09;99927.78;5043565;28;20207;-78
2023/12/20 07:18:34;;;;;;;9.63;2.77;;;;;;;6.24;94.50;99945.13;5047071;28;20195;-77
2023/12/20 07:21:00;;;;;;;6.87;2.63;;;;;;;6.21;93.09;99984.91;5047977;28;20257;-77
2023/12/20 07:23:26;;;;;;;7.80;2.50;;;;;;;6.46;93.28;99982.06;5048195;28;20283;-77
2023/12/20 07:25:53;;;;;;;8.27;3.03;;;;;;;6.23;92.66;100003.03;5043870;28;20222;-77
2023/12/20 07:28:19;;;;;;;5.50;2.50;;;;;;;6.39;91.83;100020.16;5048933;28;20210;-77
2023/12/20 07:30:47;;;;;;;10.70;2.90;;;;;;;6.36;92.10;100035.75;5050854;28;20233;-78
2023/12/20 07:33:13;;;;;;;7.07;2.97;;;;;;;6.42;90.58;100061.63;5052664;28;20818;-78
2023/12/20 07:35:40;;;;;;;10.53;3.20;;;;;;;6.50;90.21;100071.91;5052422;28;20201;-77
2023/12/20 07:38:06;;;;;;;14.13;2.80;;;;;;;6.65;90.31;100078.72;5052888;28;20240;-78
2023/12/20 07:40:32;;;;;;;8.23;3.40;;;;;;;6.52;90.80;100090.91;5052217;28;20205;-77
2023/12/20 07:42:59;;;;;;;7.47;2.90;;;;;;;6.43;90.64;100096.19;5052439;28;20656;-78
2023/12/20 07:45:25;;;;;;;9.53;3.70;;;;;;;6.48;91.21;100094.41;5048893;28;20208;-78
2023/12/20 07:47:53;;;;;;;9.40;3.83;;;;;;;6.57;91.55;100084.81;5050946;28;20248;-78
2023/12/20 07:50:19;;;;;;;8.23;3.93;;;;;;;6.76;90.87;100082.94;5051598;28;20288;-79
2023/12/20 07:52:46;;;;;;;11.10;4.37;;;;;;;6.73;90.16;100076.91;5046857;28;20601;-78
2023/12/20 07:55:12;;;;;;;8.83;4.80;;;;;;;6.94;90.86;100081.91;5049513;28;20203;-78
2023/12/20 07:57:38;;;;;;;7.70;3.77;;;;;;;6.88;89.36;100101.88;5050022;28;20198;-78
2023/12/20 08:00:06;;;;;;;12.40;3.50;;;;;;;6.81;89.32;100116.63;5049698;28;20210;-78
2023/12/20 08:02:33;;;;;;;8.53;4.80;;;;;;;6.79;89.57;100122.69;5048960;28;20215;-78
2023/12/20 08:05:00;;;;;;;13.73;3.80;;;;;;;6.70;89.92;100108.06;5047562;28;20257;-78
2023/12/20 08:07:27;;;;;;;10.30;4.13;;;;;;;6.64;89.98;100110.69;5049873;28;20229;-77
2023/12/20 08:09:54;;;;;;;8.47;4.10;;;;;;;7.01;89.97;100087.03;5047093;28;20210;-77
2023/12/20 08:12:21;;;;;;;13.30;3.93;;;;;;;6.85;89.91;100094.09;5046694;28;20198;-78
2023/12/20 08:14:47;;;;;;;11.93;5.37;;;;;;;6.59;90.81;100099.53;5047028;28;20270;-77
2023/12/20 08:17:16;;;;;;;8.47;4.17;;;;;;;6.66;90.30;100101.19;5049632;28;20252;-78
2023/12/20 08:19:42;;;;;;;14.17;5.40;;;;;;;6.77;90.16;100083.78;5047286;28;20205;-78
2023/12/20 08:22:10;;;;;;;15.70;6.37;;;;;;;6.97;90.66;100075.81;5048618;28;20211;-78
2023/12/20 08:24:36;;;;;;;12.63;4.90;;;;;;;6.85;90.17;100094.97;5048866;28;20231;-78
2023/12/20 08:27:03;;;;;;;8.33;4.30;;;;;;;6.77;90.28;100101.94;5048155;28;20295;-78
2023/12/20 08:29:29;;;;;;;14.70;5.07;;;;;;;6.73;90.28;100100.25;5048664;28;20220;-78
2023/12/20 08:31:56;;;;;;;15.73;4.20;;;;;;;6.83;89.56;100101.03;5045686;28;20215;-78
2023/12/20 08:34:23;;;;;;;10.47;4.27;;;;;;;6.56;91.98;100097.78;5048988;28;20267;-78
2023/12/20 08:36:49;;;;;;;12.87;4.13;;;;;;;6.74;93.10;100038.00;5047098;28;20197;-78
2023/12/20 08:39:17;;;;;;;10.57;4.57;;;;;;;6.74;93.21;100026.78;5047228;28;20891;-78
2023/12/20 08:41:44;;;;;;;11.93;4.07;;;;;;;6.75;92.19;100031.94;5048306;28;20202;-78
2023/12/20 08:44:10;;;;;;;7.50;4.07;;;;;;;6.82;91.05;100027.56;5048028;28;20767;-78
2023/12/20 08:46:37;;;;;;;13.60;4.43;;;;;;;6.93;91.49;100036.06;5048815;28;20227;-78
2023/12/20 08:49:03;;;;;;;8.53;4.93;;;;;;;6.86;90.83;100021.47;5043704;28;20203;-77
2023/12/20 08:51:30;;;;;;;7.63;4.20;;;;;;;7.07;91.13;100022.94;5052429;28;20247;-77
2023/12/20 08:53:56;;;;;;;6.97;4.73;;;;;;;7.01;89.32;100040.31;5051242;28;20227;-78
2023/12/20 08:56:24;;;;;;;10.00;4.67;;;;;;;7.16;89.77;100035.81;5053484;28;20210;-78
2023/12/20 08:58:50;;;;;;;7.80;3.90;;;;;;;7.15;88.76;100060.06;5050654;28;20203;-77
2023/12/20 09:01:17;;;;;;;11.97;4.27;;;;;;;7.22;88.67;100068.63;5050137;28;20223;-77
2023/12/20 09:03:44;;;;;;;9.40;4.03;;;;;;;7.08;89.35;100057.56;5053453;28;20218;-78
2023/12/20 09:06:10;;;;;;;8.67;3.93;;;;;;;7.03;89.51;100055.00;5051373;28;20224;-77
2023/12/20 09:08:36;;;;;;;7.30;3.70;;;;;;;6.93;90.74;100040.41;5051762;28;20213;-77
2023/12/20 09:11:03;;;;;;;9.33;4.70;;;;;;;7.16;91.11;100040.16;5051995;28;20207;-78
2023/12/20 09:13:31;;;;;;;9.97;3.93;;;;;;;7.18;92.52;99996.88;5051826;28;20231;-77
2023/12/20 09:15:58;;;;;;;8.40;4.40;;;;;;;6.97;92.59;99998.81;5051830;28;20209;-77
2023/12/20 09:18:25;;;;;;;11.03;4.87;;;;;;;7.06;92.82;99976.28;5051625;28;20195;-78
2023/12/20 09:20:51;;;;;;;15.67;4.50;;;;;;;6.99;93.10;99972.00;5051560;28;20238;-77
2023/12/20 09:23:18;;;;;;;8.40;4.00;;;;;;;6.95;92.28;99959.06;5051361;28;20227;-77
2023/12/20 09:25:44;;;;;;;8.30;2.93;;;;;;;6.84;91.31;99979.09;5051374;28;20217;-78
2023/12/20 09:28:11;;;;;;;5.50;3.27;;;;;;;7.00;91.50;99968.53;5051680;28;20210;-78
2023/12/20 09:30:39;;;;;;;6.33;3.67;;;;;;;7.03;91.13;99974.53;5052845;28;20220;-77
2023/12/20 09:33:07;;;;;;;10.63;4.43;;;;;;;7.08;91.07;99975.38;5051705;28;20241;-79
2023/12/20 09:35:33;;;;;;;9.73;3.27;;;;;;;7.21;90.17;99995.97;5048535;28;20218;-77
2023/12/20 09:37:59;;;;;;;8.37;3.60;;;;;;;7.18;89.74;100011.59;5053487;28;20266;-79
2023/12/20 09:40:27;;;;;;;6.77;3.63;;;;;;;6.99;88.76;100032.56;5050850;28;20203;-78
2023/12/20 09:42:57;;;;;;;4.93;3.37;;;;;;;7.28;89.71;100015.78;5052063;28;20210;-77
2023/12/20 09:45:24;;;;;;;8.47;4.37;;;;;;;7.26;89.07;100004.56;5052596;28;20672;-78
2023/12/20 09:47:53;;;;;;;10.20;3.57;;;;;;;7.31;87.55;100036.50;5052520;28;20221;-77
2023/12/20 09:50:21;;;;;;;9.43;3.10;;;;;;;7.46;87.82;100038.06;5051693;28;20197;-78
2023/12/20 09:52:51;;;;;;;11.70;3.53;;;;;;;7.27;87.98;100053.84;5050574;28;20211;-78
2023/12/20 09:55:18;;;;;;;8.90;3.23;;;;;;;7.32;87.77;100044.28;5050873;28;20202;-77
2023/12/20 09:57:44;;;;;;;10.57;3.50;;;;;;;7.45;86.26;100063.19;5050971;28;20686;-78
2023/12/20 10:00:12;;;;;;;6.63;3.10;;;;;;;7.41;85.70;100079.66;5049585;28;20285;-77
2023/12/20 10:02:43;;;;;;;9.10;3.60;;;;;;;7.52;85.84;100090.78;5051140;28;20653;-77
2023/12/20 10:05:18;;;;;;;10.03;3.80;;;;;;;7.51;85.84;100093.41;5050785;28;20724;-78
2023/12/20 10:07:45;;;;;;;7.40;2.87;;;;;;;7.26;85.40;100095.44;5051185;28;20230;-78
2023/12/20 10:10:14;;;;;;;8.23;3.53;;;;;;;7.50;86.28;100102.06;5050619;28;20447;-79
2023/12/20 10:12:40;;;;;;;9.20;4.03;;;;;;;7.61;86.23;100070.75;5050457;28;20212;-78
2023/12/20 10:15:07;;;;;;;7.10;3.47;;;;;;;7.47;86.84;100063.16;5050620;28;20205;-78
2023/12/20 10:17:33;;;;;;;7.97;3.17;;;;;;;7.52;86.11;100093.38;5050686;28;20218;-78
2023/12/20 10:20:00;;;;;;;7.77;3.23;;;;;;;7.55;86.26;100090.75;5051184;28;20238;-78
2023/12/20 10:22:28;;;;;;;6.50;3.33;;;;;;;7.52;86.55;100070.00;5052035;28;20219;-78
2023/12/20 10:24:54;;;;;;;6.83;3.93;;;;;;;7.62;87.09;100055.16;5050447;28;20284;-77
2023/12/20 10:27:21;;;;;;;6.13;4.27;;;;;;;7.71;86.76;100052.47;5050854;28;20226;-78
2023/12/20 10:29:47;;;;;;;8.07;3.37;;;;;;;7.47;86.79;100048.44;5050377;28;20284;-78
2023/12/20 10:32:24;;;;;;;10.00;4.30;;;;;;;7.45;88.21;100034.63;5050516;28;20228;-78
2023/12/20 10:34:51;;;;;;;6.80;4.80;;;;;;;7.48;88.96;100008.59;5051628;28;20756;-78
2023/12/20 10:37:17;;;;;;;6.40;5.33;;;;;;;7.50;88.21;99970.47;5052055;28;20211;-77
2023/12/20 10:39:51;;;;;;;6.67;3.90;;;;;;;7.61;87.78;99979.84;5051087;28;20273;-78
2023/12/20 10:42:18;;;;;;;6.40;4.50;;;;;;;7.59;87.68;99989.41;5050896;28;20218;-78
2023/12/20 10:44:45;;;;;;;10.33;4.93;;;;;;;7.73;87.70;99993.53;5050457;28;20230;-78
2023/12/20 10:47:13;;;;;;;8.37;4.50;;;;;;;7.61;87.81;100003.22;5050787;28;20241;-78
2023/12/20 10:49:41;;;;;;;7.27;5.23;;;;;;;7.60;88.89;99988.53;5049910;28;20218;-78
2023/12/20 10:52:08;;;;;;;7.43;5.40;;;;;;;7.74;88.39;99984.00;5051303;28;20734;-77
2023/12/20 10:54:34;;;;;;;14.07;5.97;;;;;;;7.50;89.32;99978.28;5050757;28;20233;-78
2023/12/20 10:57:06;;;;;;;7.93;5.50;;;;;;;7.44;89.80;99965.38;5051188;28;20212;-79
2023/12/20 10:59:34;;;;;;;10.57;6.13;;;;;;;7.42;89.32;99958.50;5055498;28;20628;-77
2023/12/20 11:02:05;;;;;;;9.67;6.07;;;;;;;7.58;89.96;99933.16;5056121;28;20219;-77
2023/12/20 11:04:39;;;;;;;8.50;6.20;;;;;;;7.54;89.63;99927.16;5055183;28;20226;-77
2023/12/20 11:07:16;;;;;;;6.90;6.10;;;;;;;7.52;90.65;99927.16;5055815;28;20320;-77
2023/12/20 11:09:50;;;;;;;8.50;6.13;;;;;;;7.47;90.32;99918.59;5054521;28;20214;-76
2023/12/20 11:12:24;;;;;;;12.03;6.53;;;;;;;7.54;92.28;99894.25;5056072;28;20211;-77
2023/12/20 11:14:53;;;;;;;13.97;6.47;;;;;;;7.58;92.86;99856.09;5053346;28;20313;-76
2023/12/20 11:17:20;;;;;;;10.23;6.30;;;;;;;7.34;95.22;99832.22;5049254;28;20301;-77
2023/12/20 11:20:07;;;;;;;13.03;7.27;;;;;;;7.20;97.77;99768.44;5050354;28;20207;-77
2023/12/20 11:22:35;;;;;;;12.90;7.87;;;;;;;7.09;99.27;99740.06;5049551;28;20207;-77
2023/12/20 11:25:06;;;;;;;11.23;7.60;;;;;;;7.10;100.00;99727.06;5049971;28;20210;-78
2023/12/20 11:27:34;;;;;;;8.43;6.40;;;;;;;7.09;100.00;99682.97;5050422;28;20221;-78
2023/12/20 11:30:00;;;;;;;12.07;6.27;;;;;;;6.72;100.00;99658.50;5050508;28;20596;-78
2023/12/20 11:32:30;;;;;;;11.33;7.50;;;;;;;6.95;100.00;99628.72;5050213;28;20219;-77